sensor_id;sensor_type;location;lat;lon;timestamp;temperature;humidity
75931;DHT22;64609;47.052;15.462;2022-11-15T00:00:27;13.00;76.50
75931;DHT22;64609;47.052;15.462;2022-11-15T00:02:53;13.00;76.20
75931;DHT22;64609;47.052;15.462;2022-11-15T00:05:19;13.10;76.00
75931;DHT22;64609;47.052;15.462;2022-11-15T00:07:45;13.10;76.30
75931;DHT22;64609;47.052;15.462;2022-11-15T00:10:10;13.10;76.00
75931;DHT22;64609;47.052;15.462;2022-11-15T00:12:36;13.00;76.10
75931;DHT22;64609;47.052;15.462;2022-11-15T00:15:02;13.00;76.30
75931;DHT22;64609;47.052;15.462;2022-11-15T00:17:27;13.00;76.60
75931;DHT22;64609;47.052;15.462;2022-11-15T00:19:53;12.90;76.50
75931;DHT22;64609;47.052;15.462;2022-11-15T00:22:18;12.90;76.70
75931;DHT22;64609;47.052;15.462;2022-11-15T00:24:44;13.00;77.00
75931;DHT22;64609;47.052;15.462;2022-11-15T00:27:10;13.00;76.70
75931;DHT22;64609;47.052;15.462;2022-11-15T00:29:35;13.00;76.90
75931;DHT22;64609;47.052;15.462;2022-11-15T00:32:04;13.00;76.80
75931;DHT22;64609;47.052;15.462;2022-11-15T00:34:29;13.00;76.90
75931;DHT22;64609;47.052;15.462;2022-11-15T00:36:55;13.00;76.90
75931;DHT22;64609;47.052;15.462;2022-11-15T00:39:21;12.90;77.10
75931;DHT22;64609;47.052;15.462;2022-11-15T00:41:46;12.90;76.90
75931;DHT22;64609;47.052;15.462;2022-11-15T00:44:12;13.00;77.20
75931;DHT22;64609;47.052;15.462;2022-11-15T00:46:38;13.00;77.50
75931;DHT22;64609;47.052;15.462;2022-11-15T00:49:03;13.10;76.90
75931;DHT22;64609;47.052;15.462;2022-11-15T00:51:29;13.10;76.90
75931;DHT22;64609;47.052;15.462;2022-11-15T00:53:54;13.00;76.70
75931;DHT22;64609;47.052;15.462;2022-11-15T00:56:20;13.00;76.90
75931;DHT22;64609;47.052;15.462;2022-11-15T00:58:46;13.00;77.10
75931;DHT22;64609;47.052;15.462;2022-11-15T01:01:13;13.00;77.20
75931;DHT22;64609;47.052;15.462;2022-11-15T01:03:40;13.00;77.30
75931;DHT22;64609;47.052;15.462;2022-11-15T01:06:07;13.10;77.70
75931;DHT22;64609;47.052;15.462;2022-11-15T01:08:33;13.10;77.20
75931;DHT22;64609;47.052;15.462;2022-11-15T01:11:03;13.10;76.90
75931;DHT22;64609;47.052;15.462;2022-11-15T01:13:31;13.10;77.00
75931;DHT22;64609;47.052;15.462;2022-11-15T01:15:57;13.10;76.80
75931;DHT22;64609;47.052;15.462;2022-11-15T01:18:23;13.10;76.90
75931;DHT22;64609;47.052;15.462;2022-11-15T01:20:48;13.20;76.80
75931;DHT22;64609;47.052;15.462;2022-11-15T01:23:14;13.20;76.60
75931;DHT22;64609;47.052;15.462;2022-11-15T01:25:40;13.20;76.70
75931;DHT22;64609;47.052;15.462;2022-11-15T01:28:05;13.20;76.90
75931;DHT22;64609;47.052;15.462;2022-11-15T01:30:31;13.20;76.70
75931;DHT22;64609;47.052;15.462;2022-11-15T01:32:57;13.20;76.60
75931;DHT22;64609;47.052;15.462;2022-11-15T01:35:22;13.20;76.50
75931;DHT22;64609;47.052;15.462;2022-11-15T01:37:48;13.20;76.70
75931;DHT22;64609;47.052;15.462;2022-11-15T01:40:14;13.20;76.70
75931;DHT22;64609;47.052;15.462;2022-11-15T01:42:39;13.20;76.50
75931;DHT22;64609;47.052;15.462;2022-11-15T01:45:05;13.20;76.60
75931;DHT22;64609;47.052;15.462;2022-11-15T01:47:35;13.20;76.70
75931;DHT22;64609;47.052;15.462;2022-11-15T01:50:08;13.20;76.90
75931;DHT22;64609;47.052;15.462;2022-11-15T01:52:36;13.20;76.70
75931;DHT22;64609;47.052;15.462;2022-11-15T01:55:24;13.10;76.70
75931;DHT22;64609;47.052;15.462;2022-11-15T01:57:55;13.10;76.70
75931;DHT22;64609;47.052;15.462;2022-11-15T02:00:21;13.10;77.10
75931;DHT22;64609;47.052;15.462;2022-11-15T02:02:47;13.10;77.40
75931;DHT22;64609;47.052;15.462;2022-11-15T02:05:13;13.10;76.90
75931;DHT22;64609;47.052;15.462;2022-11-15T02:07:38;13.10;77.10
75931;DHT22;64609;47.052;15.462;2022-11-15T02:10:11;13.10;77.00
75931;DHT22;64609;47.052;15.462;2022-11-15T02:12:37;13.10;77.20
75931;DHT22;64609;47.052;15.462;2022-11-15T02:15:04;13.10;77.10
75931;DHT22;64609;47.052;15.462;2022-11-15T02:20:29;13.10;77.10
75931;DHT22;64609;47.052;15.462;2022-11-15T02:25:47;13.00;77.10
75931;DHT22;64609;47.052;15.462;2022-11-15T02:33:54;12.90;77.50
75931;DHT22;64609;47.052;15.462;2022-11-15T02:39:28;12.90;77.70
75931;DHT22;64609;47.052;15.462;2022-11-15T02:42:07;12.90;77.70
75931;DHT22;64609;47.052;15.462;2022-11-15T02:44:56;12.90;77.90
75931;DHT22;64609;47.052;15.462;2022-11-15T02:47:23;12.90;77.70
75931;DHT22;64609;47.052;15.462;2022-11-15T02:49:54;12.80;77.50
75931;DHT22;64609;47.052;15.462;2022-11-15T02:52:23;12.80;77.80
75931;DHT22;64609;47.052;15.462;2022-11-15T02:55:00;12.90;78.10
75931;DHT22;64609;47.052;15.462;2022-11-15T03:00:14;12.90;77.70
75931;DHT22;64609;47.052;15.462;2022-11-15T03:03:20;13.00;77.70
75931;DHT22;64609;47.052;15.462;2022-11-15T03:11:34;12.90;77.50
75931;DHT22;64609;47.052;15.462;2022-11-15T03:14:31;12.90;77.50
75931;DHT22;64609;47.052;15.462;2022-11-15T03:17:13;12.90;77.60
75931;DHT22;64609;47.052;15.462;2022-11-15T03:19:46;12.90;77.80
75931;DHT22;64609;47.052;15.462;2022-11-15T03:22:21;12.90;77.80
75931;DHT22;64609;47.052;15.462;2022-11-15T03:24:53;12.90;77.80
75931;DHT22;64609;47.052;15.462;2022-11-15T03:27:22;12.90;77.90
75931;DHT22;64609;47.052;15.462;2022-11-15T03:29:52;12.90;77.70
75931;DHT22;64609;47.052;15.462;2022-11-15T03:32:28;12.90;77.70
75931;DHT22;64609;47.052;15.462;2022-11-15T03:37:51;12.90;77.90
75931;DHT22;64609;47.052;15.462;2022-11-15T03:40:24;12.90;79.60
75931;DHT22;64609;47.052;15.462;2022-11-15T03:46:00;13.00;77.60
75931;DHT22;64609;47.052;15.462;2022-11-15T03:48:32;12.90;77.90
75931;DHT22;64609;47.052;15.462;2022-11-15T03:50:59;12.90;78.30
75931;DHT22;64609;47.052;15.462;2022-11-15T03:53:25;12.90;78.60
75931;DHT22;64609;47.052;15.462;2022-11-15T03:55:52;12.80;78.20
75931;DHT22;64609;47.052;15.462;2022-11-15T03:58:18;12.90;78.20
75931;DHT22;64609;47.052;15.462;2022-11-15T04:00:43;12.90;78.40
75931;DHT22;64609;47.052;15.462;2022-11-15T04:03:09;12.90;78.30
75931;DHT22;64609;47.052;15.462;2022-11-15T04:05:34;12.90;78.10
75931;DHT22;64609;47.052;15.462;2022-11-15T04:08:00;12.80;78.00
75931;DHT22;64609;47.052;15.462;2022-11-15T04:10:26;12.70;78.00
75931;DHT22;64609;47.052;15.462;2022-11-15T04:12:51;12.70;78.50
75931;DHT22;64609;47.052;15.462;2022-11-15T04:15:19;12.70;78.60
75931;DHT22;64609;47.052;15.462;2022-11-15T04:17:55;12.70;78.40
75931;DHT22;64609;47.052;15.462;2022-11-15T04:20:26;12.70;78.70
75931;DHT22;64609;47.052;15.462;2022-11-15T04:23:14;12.80;78.70
75931;DHT22;64609;47.052;15.462;2022-11-15T04:26:18;12.80;78.50
75931;DHT22;64609;47.052;15.462;2022-11-15T04:28:45;12.80;78.80
75931;DHT22;64609;47.052;15.462;2022-11-15T04:31:29;12.70;78.90
75931;DHT22;64609;47.052;15.462;2022-11-15T04:33:55;12.80;79.10
75931;DHT22;64609;47.052;15.462;2022-11-15T04:36:21;12.80;78.90
75931;DHT22;64609;47.052;15.462;2022-11-15T04:39:06;12.80;78.90
75931;DHT22;64609;47.052;15.462;2022-11-15T04:41:32;12.80;78.80
75931;DHT22;64609;47.052;15.462;2022-11-15T04:43:58;12.80;79.00
75931;DHT22;64609;47.052;15.462;2022-11-15T04:46:24;12.80;78.90
75931;DHT22;64609;47.052;15.462;2022-11-15T04:48:50;12.80;79.00
75931;DHT22;64609;47.052;15.462;2022-11-15T04:51:16;12.80;78.70
75931;DHT22;64609;47.052;15.462;2022-11-15T04:53:42;12.80;78.90
75931;DHT22;64609;47.052;15.462;2022-11-15T04:56:08;12.80;78.80
75931;DHT22;64609;47.052;15.462;2022-11-15T04:58:33;12.70;78.90
75931;DHT22;64609;47.052;15.462;2022-11-15T05:01:15;12.70;79.30
75931;DHT22;64609;47.052;15.462;2022-11-15T05:03:42;12.60;79.50
75931;DHT22;64609;47.052;15.462;2022-11-15T05:06:26;12.60;79.30
75931;DHT22;64609;47.052;15.462;2022-11-15T05:08:52;12.60;79.70
75931;DHT22;64609;47.052;15.462;2022-11-15T05:11:18;12.60;79.70
75931;DHT22;64609;47.052;15.462;2022-11-15T05:13:44;12.60;79.80
75931;DHT22;64609;47.052;15.462;2022-11-15T05:16:09;12.60;79.80
75931;DHT22;64609;47.052;15.462;2022-11-15T05:18:35;12.60;79.40
75931;DHT22;64609;47.052;15.462;2022-11-15T05:21:05;12.50;80.30
75931;DHT22;64609;47.052;15.462;2022-11-15T05:23:31;12.60;80.40
75931;DHT22;64609;47.052;15.462;2022-11-15T05:26:01;12.60;80.20
75931;DHT22;64609;47.052;15.462;2022-11-15T05:28:26;12.60;79.80
75931;DHT22;64609;47.052;15.462;2022-11-15T05:30:52;12.40;79.70
75931;DHT22;64609;47.052;15.462;2022-11-15T05:33:18;12.50;80.40
75931;DHT22;64609;47.052;15.462;2022-11-15T05:35:48;12.50;80.40
75931;DHT22;64609;47.052;15.462;2022-11-15T05:38:16;12.50;80.50
75931;DHT22;64609;47.052;15.462;2022-11-15T05:40:42;12.50;80.20
75931;DHT22;64609;47.052;15.462;2022-11-15T05:43:07;12.50;80.20
75931;DHT22;64609;47.052;15.462;2022-11-15T05:45:34;12.40;80.30
75931;DHT22;64609;47.052;15.462;2022-11-15T05:48:05;12.40;80.20
75931;DHT22;64609;47.052;15.462;2022-11-15T05:50:31;12.30;80.60
75931;DHT22;64609;47.052;15.462;2022-11-15T05:52:57;12.30;80.60
75931;DHT22;64609;47.052;15.462;2022-11-15T05:55:23;12.30;81.00
75931;DHT22;64609;47.052;15.462;2022-11-15T05:57:49;12.40;80.70
75931;DHT22;64609;47.052;15.462;2022-11-15T06:00:14;12.40;80.80
75931;DHT22;64609;47.052;15.462;2022-11-15T06:02:40;12.40;80.90
75931;DHT22;64609;47.052;15.462;2022-11-15T06:05:06;12.30;81.10
75931;DHT22;64609;47.052;15.462;2022-11-15T06:07:31;12.40;81.00
75931;DHT22;64609;47.052;15.462;2022-11-15T06:09:57;12.20;80.80
75931;DHT22;64609;47.052;15.462;2022-11-15T06:12:22;12.30;81.40
75931;DHT22;64609;47.052;15.462;2022-11-15T06:14:48;12.40;81.30
75931;DHT22;64609;47.052;15.462;2022-11-15T06:17:14;12.30;81.00
75931;DHT22;64609;47.052;15.462;2022-11-15T06:19:39;12.30;81.00
75931;DHT22;64609;47.052;15.462;2022-11-15T06:22:05;12.30;80.70
75931;DHT22;64609;47.052;15.462;2022-11-15T06:24:31;12.40;80.80
75931;DHT22;64609;47.052;15.462;2022-11-15T06:26:56;12.40;80.80
75931;DHT22;64609;47.052;15.462;2022-11-15T06:29:23;12.40;80.50
75931;DHT22;64609;47.052;15.462;2022-11-15T06:31:48;12.40;80.70
75931;DHT22;64609;47.052;15.462;2022-11-15T06:34:14;12.40;80.60
75931;DHT22;64609;47.052;15.462;2022-11-15T06:36:39;12.40;80.30
75931;DHT22;64609;47.052;15.462;2022-11-15T06:39:05;12.40;80.30
75931;DHT22;64609;47.052;15.462;2022-11-15T06:41:34;12.40;80.50
75931;DHT22;64609;47.052;15.462;2022-11-15T06:44:00;12.40;80.40
75931;DHT22;64609;47.052;15.462;2022-11-15T06:46:26;12.40;79.90
75931;DHT22;64609;47.052;15.462;2022-11-15T06:48:52;12.40;79.80
75931;DHT22;64609;47.052;15.462;2022-11-15T06:51:18;12.30;79.80
75931;DHT22;64609;47.052;15.462;2022-11-15T06:53:44;12.40;80.00
75931;DHT22;64609;47.052;15.462;2022-11-15T06:56:10;12.40;80.40
75931;DHT22;64609;47.052;15.462;2022-11-15T06:58:36;12.40;80.20
75931;DHT22;64609;47.052;15.462;2022-11-15T07:01:09;12.40;79.80
75931;DHT22;64609;47.052;15.462;2022-11-15T07:03:37;12.40;80.10
75931;DHT22;64609;47.052;15.462;2022-11-15T07:06:03;12.40;80.20
75931;DHT22;64609;47.052;15.462;2022-11-15T07:08:29;12.50;80.40
75931;DHT22;64609;47.052;15.462;2022-11-15T07:11:00;12.50;80.30
75931;DHT22;64609;47.052;15.462;2022-11-15T07:13:27;12.50;80.10
75931;DHT22;64609;47.052;15.462;2022-11-15T07:15:53;12.60;80.00
75931;DHT22;64609;47.052;15.462;2022-11-15T07:18:19;12.70;80.00
75931;DHT22;64609;47.052;15.462;2022-11-15T07:20:45;12.70;79.90
75931;DHT22;64609;47.052;15.462;2022-11-15T07:23:10;12.70;79.80
75931;DHT22;64609;47.052;15.462;2022-11-15T07:25:36;12.80;79.80
75931;DHT22;64609;47.052;15.462;2022-11-15T07:28:02;12.80;79.50
75931;DHT22;64609;47.052;15.462;2022-11-15T07:30:28;12.80;79.30
75931;DHT22;64609;47.052;15.462;2022-11-15T07:32:59;12.80;79.40
75931;DHT22;64609;47.052;15.462;2022-11-15T07:35:27;12.90;79.30
75931;DHT22;64609;47.052;15.462;2022-11-15T07:37:57;12.90;79.30
75931;DHT22;64609;47.052;15.462;2022-11-15T07:40:24;12.90;79.20
75931;DHT22;64609;47.052;15.462;2022-11-15T07:42:50;12.90;79.20
75931;DHT22;64609;47.052;15.462;2022-11-15T07:45:20;13.00;79.20
75931;DHT22;64609;47.052;15.462;2022-11-15T07:47:49;13.00;79.30
75931;DHT22;64609;47.052;15.462;2022-11-15T07:50:15;13.10;79.10
75931;DHT22;64609;47.052;15.462;2022-11-15T07:52:41;13.00;79.00
75931;DHT22;64609;47.052;15.462;2022-11-15T07:55:07;13.10;78.80
75931;DHT22;64609;47.052;15.462;2022-11-15T07:57:33;13.10;79.10
75931;DHT22;64609;47.052;15.462;2022-11-15T07:59:59;13.20;78.70
75931;DHT22;64609;47.052;15.462;2022-11-15T08:02:25;13.20;78.60
75931;DHT22;64609;47.052;15.462;2022-11-15T08:04:50;13.20;78.40
75931;DHT22;64609;47.052;15.462;2022-11-15T08:07:16;13.20;78.50
75931;DHT22;64609;47.052;15.462;2022-11-15T08:09:41;13.20;78.30
75931;DHT22;64609;47.052;15.462;2022-11-15T08:12:07;13.20;78.30
75931;DHT22;64609;47.052;15.462;2022-11-15T08:14:34;13.20;78.30
75931;DHT22;64609;47.052;15.462;2022-11-15T08:16:59;13.30;78.30
75931;DHT22;64609;47.052;15.462;2022-11-15T08:19:25;13.30;78.10
75931;DHT22;64609;47.052;15.462;2022-11-15T08:21:51;13.30;78.30
75931;DHT22;64609;47.052;15.462;2022-11-15T08:24:16;13.30;78.70
75931;DHT22;64609;47.052;15.462;2022-11-15T08:26:42;13.30;78.00
75931;DHT22;64609;47.052;15.462;2022-11-15T08:29:07;13.30;78.00
75931;DHT22;64609;47.052;15.462;2022-11-15T08:31:35;13.30;78.00
75931;DHT22;64609;47.052;15.462;2022-11-15T08:34:02;13.30;78.40
75931;DHT22;64609;47.052;15.462;2022-11-15T08:36:28;13.30;78.20
75931;DHT22;64609;47.052;15.462;2022-11-15T08:38:54;13.30;78.10
75931;DHT22;64609;47.052;15.462;2022-11-15T08:41:26;13.30;78.10
75931;DHT22;64609;47.052;15.462;2022-11-15T08:43:53;13.30;78.00
75931;DHT22;64609;47.052;15.462;2022-11-15T08:46:19;13.30;78.60
75931;DHT22;64609;47.052;15.462;2022-11-15T08:48:44;13.30;78.50
75931;DHT22;64609;47.052;15.462;2022-11-15T08:51:10;13.30;78.40
75931;DHT22;64609;47.052;15.462;2022-11-15T08:53:36;13.30;78.20
75931;DHT22;64609;47.052;15.462;2022-11-15T08:56:01;13.30;78.50
75931;DHT22;64609;47.052;15.462;2022-11-15T08:58:27;13.30;78.30
75931;DHT22;64609;47.052;15.462;2022-11-15T09:00:53;13.30;78.40
75931;DHT22;64609;47.052;15.462;2022-11-15T09:03:19;13.30;78.30
75931;DHT22;64609;47.052;15.462;2022-11-15T09:05:45;13.30;78.40
75931;DHT22;64609;47.052;15.462;2022-11-15T09:08:10;13.30;78.10
75931;DHT22;64609;47.052;15.462;2022-11-15T09:10:38;13.40;78.30
75931;DHT22;64609;47.052;15.462;2022-11-15T09:13:03;13.30;78.40
75931;DHT22;64609;47.052;15.462;2022-11-15T09:15:29;13.30;78.20
75931;DHT22;64609;47.052;15.462;2022-11-15T09:17:58;13.20;78.10
75931;DHT22;64609;47.052;15.462;2022-11-15T09:20:24;13.20;78.30
75931;DHT22;64609;47.052;15.462;2022-11-15T09:22:49;13.20;78.60
75931;DHT22;64609;47.052;15.462;2022-11-15T09:25:15;13.20;78.60
75931;DHT22;64609;47.052;15.462;2022-11-15T09:27:40;13.10;78.10
75931;DHT22;64609;47.052;15.462;2022-11-15T09:30:06;13.10;78.60
75931;DHT22;64609;47.052;15.462;2022-11-15T09:32:32;13.10;78.80
75931;DHT22;64609;47.052;15.462;2022-11-15T09:34:58;13.10;78.80
75931;DHT22;64609;47.052;15.462;2022-11-15T09:37:23;13.10;78.70
75931;DHT22;64609;47.052;15.462;2022-11-15T09:39:49;13.10;78.70
75931;DHT22;64609;47.052;15.462;2022-11-15T09:47:37;13.00;78.60
75931;DHT22;64609;47.052;15.462;2022-11-15T09:50:14;13.00;79.10
75931;DHT22;64609;47.052;15.462;2022-11-15T09:52:43;13.00;78.70
75931;DHT22;64609;47.052;15.462;2022-11-15T09:55:14;13.00;78.70
75931;DHT22;64609;47.052;15.462;2022-11-15T10:00:53;13.10;78.50
75931;DHT22;64609;47.052;15.462;2022-11-15T10:05:53;13.10;79.10
75931;DHT22;64609;47.052;15.462;2022-11-15T10:08:33;13.20;78.90
75931;DHT22;64609;47.052;15.462;2022-11-15T10:11:07;13.30;78.70
75931;DHT22;64609;47.052;15.462;2022-11-15T10:13:35;13.30;78.40
75931;DHT22;64609;47.052;15.462;2022-11-15T10:21:37;13.30;78.10
75931;DHT22;64609;47.052;15.462;2022-11-15T10:24:13;13.30;78.10
75931;DHT22;64609;47.052;15.462;2022-11-15T10:26:47;13.40;78.00
75931;DHT22;64609;47.052;15.462;2022-11-15T10:29:20;13.50;77.70
75931;DHT22;64609;47.052;15.462;2022-11-15T10:31:45;13.50;77.70
75931;DHT22;64609;47.052;15.462;2022-11-15T10:34:20;13.60;77.40
75931;DHT22;64609;47.052;15.462;2022-11-15T10:36:59;13.60;77.10
75931;DHT22;64609;47.052;15.462;2022-11-15T10:39:26;13.70;77.10
75931;DHT22;64609;47.052;15.462;2022-11-15T10:41:52;13.70;77.20
75931;DHT22;64609;47.052;15.462;2022-11-15T10:44:21;13.80;77.10
75931;DHT22;64609;47.052;15.462;2022-11-15T10:49:22;13.80;76.90
75931;DHT22;64609;47.052;15.462;2022-11-15T10:51:52;13.90;77.00
75931;DHT22;64609;47.052;15.462;2022-11-15T10:54:33;13.90;76.80
75931;DHT22;64609;47.052;15.462;2022-11-15T10:56:59;14.00;76.70
75931;DHT22;64609;47.052;15.462;2022-11-15T10:59:29;14.00;76.50
75931;DHT22;64609;47.052;15.462;2022-11-15T11:01:55;14.00;76.10
75931;DHT22;64609;47.052;15.462;2022-11-15T11:04:21;14.00;75.90
75931;DHT22;64609;47.052;15.462;2022-11-15T11:06:58;14.00;75.90
75931;DHT22;64609;47.052;15.462;2022-11-15T11:09:37;14.10;76.00
75931;DHT22;64609;47.052;15.462;2022-11-15T11:12:05;14.10;75.30
75931;DHT22;64609;47.052;15.462;2022-11-15T11:14:34;14.00;75.00
75931;DHT22;64609;47.052;15.462;2022-11-15T11:25:43;14.00;75.50
75931;DHT22;64609;47.052;15.462;2022-11-15T11:28:45;14.00;75.40
75931;DHT22;64609;47.052;15.462;2022-11-15T11:31:22;14.10;75.10
75931;DHT22;64609;47.052;15.462;2022-11-15T11:47:24;14.30;75.20
75931;DHT22;64609;47.052;15.462;2022-11-15T11:50:00;14.30;74.50
75931;DHT22;64609;47.052;15.462;2022-11-15T11:52:31;14.20;73.70
75931;DHT22;64609;47.052;15.462;2022-11-15T11:55:00;14.10;74.50
75931;DHT22;64609;47.052;15.462;2022-11-15T12:00:38;14.30;75.00
75931;DHT22;64609;47.052;15.462;2022-11-15T12:05:57;14.30;74.20
75931;DHT22;64609;47.052;15.462;2022-11-15T12:08:30;14.30;74.20
75931;DHT22;64609;47.052;15.462;2022-11-15T12:11:10;14.20;73.50
75931;DHT22;64609;47.052;15.462;2022-11-15T12:13:38;14.10;73.80
75931;DHT22;64609;47.052;15.462;2022-11-15T12:16:10;14.10;74.50
75931;DHT22;64609;47.052;15.462;2022-11-15T12:18:38;14.20;74.30
75931;DHT22;64609;47.052;15.462;2022-11-15T12:21:25;14.20;74.50
75931;DHT22;64609;47.052;15.462;2022-11-15T12:24:00;14.20;73.90
75931;DHT22;64609;47.052;15.462;2022-11-15T12:26:32;14.20;73.90
75931;DHT22;64609;47.052;15.462;2022-11-15T12:29:27;14.10;73.60
75931;DHT22;64609;47.052;15.462;2022-11-15T12:31:51;14.10;74.50
75931;DHT22;64609;47.052;15.462;2022-11-15T12:36:47;14.00;73.90
75931;DHT22;64609;47.052;15.462;2022-11-15T12:39:15;14.00;74.10
75931;DHT22;64609;47.052;15.462;2022-11-15T12:41:42;14.00;74.30
75931;DHT22;64609;47.052;15.462;2022-11-15T13:00:15;13.90;74.80
75931;DHT22;64609;47.052;15.462;2022-11-15T13:02:44;13.90;75.10
75931;DHT22;64609;47.052;15.462;2022-11-15T13:17:49;13.70;75.30
75931;DHT22;64609;47.052;15.462;2022-11-15T13:22:53;13.70;75.80
75931;DHT22;64609;47.052;15.462;2022-11-15T13:26:10;13.80;75.90
75931;DHT22;64609;47.052;15.462;2022-11-15T13:33:49;13.70;75.90
75931;DHT22;64609;47.052;15.462;2022-11-15T13:36:26;13.70;75.40
75931;DHT22;64609;47.052;15.462;2022-11-15T13:39:23;13.60;75.70
75931;DHT22;64609;47.052;15.462;2022-11-15T13:41:51;13.70;75.90
75931;DHT22;64609;47.052;15.462;2022-11-15T13:44:23;13.70;75.30
75931;DHT22;64609;47.052;15.462;2022-11-15T13:46:49;13.60;75.30
75931;DHT22;64609;47.052;15.462;2022-11-15T13:49:30;13.50;76.40
75931;DHT22;64609;47.052;15.462;2022-11-15T13:51:56;13.50;75.70
75931;DHT22;64609;47.052;15.462;2022-11-15T13:54:41;13.50;75.60
75931;DHT22;64609;47.052;15.462;2022-11-15T13:57:16;13.50;75.50
75931;DHT22;64609;47.052;15.462;2022-11-15T13:59:49;13.50;76.00
75931;DHT22;64609;47.052;15.462;2022-11-15T14:02:34;13.50;76.00
75931;DHT22;64609;47.052;15.462;2022-11-15T14:05:05;13.50;75.90
75931;DHT22;64609;47.052;15.462;2022-11-15T14:07:39;13.50;75.90
75931;DHT22;64609;47.052;15.462;2022-11-15T14:12:51;13.50;75.70
75931;DHT22;64609;47.052;15.462;2022-11-15T14:15:30;13.50;76.00
75931;DHT22;64609;47.052;15.462;2022-11-15T14:17:55;13.50;76.00
75931;DHT22;64609;47.052;15.462;2022-11-15T14:22:55;13.50;75.50
75931;DHT22;64609;47.052;15.462;2022-11-15T14:25:26;13.40;75.80
75931;DHT22;64609;47.052;15.462;2022-11-15T14:28:09;13.40;76.10
75931;DHT22;64609;47.052;15.462;2022-11-15T14:30:35;13.50;76.10
75931;DHT22;64609;47.052;15.462;2022-11-15T14:33:01;13.50;76.10
75931;DHT22;64609;47.052;15.462;2022-11-15T14:35:28;13.50;75.60
75931;DHT22;64609;47.052;15.462;2022-11-15T14:37:53;13.50;76.10
75931;DHT22;64609;47.052;15.462;2022-11-15T14:40:21;13.50;76.40
75931;DHT22;64609;47.052;15.462;2022-11-15T14:42:48;13.50;75.60
75931;DHT22;64609;47.052;15.462;2022-11-15T14:45:16;13.40;75.20
75931;DHT22;64609;47.052;15.462;2022-11-15T14:47:42;13.20;75.30
75931;DHT22;64609;47.052;15.462;2022-11-15T14:50:16;13.10;75.70
75931;DHT22;64609;47.052;15.462;2022-11-15T14:52:43;13.10;75.90
75931;DHT22;64609;47.052;15.462;2022-11-15T14:55:15;13.10;75.90
75931;DHT22;64609;47.052;15.462;2022-11-15T14:57:42;13.10;76.30
75931;DHT22;64609;47.052;15.462;2022-11-15T15:00:08;13.20;76.30
75931;DHT22;64609;47.052;15.462;2022-11-15T15:02:35;13.30;76.10
75931;DHT22;64609;47.052;15.462;2022-11-15T15:05:06;13.30;76.10
75931;DHT22;64609;47.052;15.462;2022-11-15T15:07:38;13.30;76.40
75931;DHT22;64609;47.052;15.462;2022-11-15T15:10:03;13.40;76.30
75931;DHT22;64609;47.052;15.462;2022-11-15T15:12:29;13.40;76.10
75931;DHT22;64609;47.052;15.462;2022-11-15T15:14:55;13.40;76.60
75931;DHT22;64609;47.052;15.462;2022-11-15T15:17:21;13.50;76.40
75931;DHT22;64609;47.052;15.462;2022-11-15T15:19:46;13.50;76.40
75931;DHT22;64609;47.052;15.462;2022-11-15T15:22:17;13.40;75.60
75931;DHT22;64609;47.052;15.462;2022-11-15T15:24:45;13.40;75.90
75931;DHT22;64609;47.052;15.462;2022-11-15T15:27:11;13.40;76.10
75931;DHT22;64609;47.052;15.462;2022-11-15T15:29:38;13.40;76.70
75931;DHT22;64609;47.052;15.462;2022-11-15T15:32:04;13.50;76.70
75931;DHT22;64609;47.052;15.462;2022-11-15T15:34:29;13.50;76.70
75931;DHT22;64609;47.052;15.462;2022-11-15T15:37:19;13.50;76.90
75931;DHT22;64609;47.052;15.462;2022-11-15T15:39:49;13.60;76.60
75931;DHT22;64609;47.052;15.462;2022-11-15T15:42:15;13.60;76.50
75931;DHT22;64609;47.052;15.462;2022-11-15T15:44:40;13.60;76.10
75931;DHT22;64609;47.052;15.462;2022-11-15T15:47:35;13.60;75.90
75931;DHT22;64609;47.052;15.462;2022-11-15T15:50:01;13.60;76.10
75931;DHT22;64609;47.052;15.462;2022-11-15T15:52:27;13.60;76.10
75931;DHT22;64609;47.052;15.462;2022-11-15T15:54:53;13.60;76.00
75931;DHT22;64609;47.052;15.462;2022-11-15T15:57:18;13.60;76.10
75931;DHT22;64609;47.052;15.462;2022-11-15T15:59:44;13.60;75.70
75931;DHT22;64609;47.052;15.462;2022-11-15T16:02:13;13.60;76.50
75931;DHT22;64609;47.052;15.462;2022-11-15T16:04:39;13.60;75.70
75931;DHT22;64609;47.052;15.462;2022-11-15T16:07:05;13.60;75.60
75931;DHT22;64609;47.052;15.462;2022-11-15T16:09:33;13.60;75.70
75931;DHT22;64609;47.052;15.462;2022-11-15T16:12:17;13.50;75.80
75931;DHT22;64609;47.052;15.462;2022-11-15T16:14:42;13.60;76.00
75931;DHT22;64609;47.052;15.462;2022-11-15T16:17:18;13.50;75.30
75931;DHT22;64609;47.052;15.462;2022-11-15T16:19:45;13.50;75.70
75931;DHT22;64609;47.052;15.462;2022-11-15T16:22:11;13.50;75.80
75931;DHT22;64609;47.052;15.462;2022-11-15T16:24:36;13.60;75.90
75931;DHT22;64609;47.052;15.462;2022-11-15T16:27:02;13.60;75.80
75931;DHT22;64609;47.052;15.462;2022-11-15T16:29:27;13.60;76.00
75931;DHT22;64609;47.052;15.462;2022-11-15T16:31:53;13.60;75.90
75931;DHT22;64609;47.052;15.462;2022-11-15T16:34:19;13.60;75.90
75931;DHT22;64609;47.052;15.462;2022-11-15T16:36:45;13.60;75.80
75931;DHT22;64609;47.052;15.462;2022-11-15T16:39:11;13.60;75.40
75931;DHT22;64609;47.052;15.462;2022-11-15T16:41:38;13.60;75.40
75931;DHT22;64609;47.052;15.462;2022-11-15T16:44:04;13.60;76.10
75931;DHT22;64609;47.052;15.462;2022-11-15T16:46:29;13.60;75.70
75931;DHT22;64609;47.052;15.462;2022-11-15T16:48:55;13.60;75.50
75931;DHT22;64609;47.052;15.462;2022-11-15T16:51:22;13.60;75.70
75931;DHT22;64609;47.052;15.462;2022-11-15T16:53:48;13.60;75.90
75931;DHT22;64609;47.052;15.462;2022-11-15T16:58:49;13.60;75.70
75931;DHT22;64609;47.052;15.462;2022-11-15T17:01:23;13.60;75.70
75931;DHT22;64609;47.052;15.462;2022-11-15T17:03:49;13.60;76.10
75931;DHT22;64609;47.052;15.462;2022-11-15T17:06:15;13.60;75.50
75931;DHT22;64609;47.052;15.462;2022-11-15T17:08:43;13.60;75.30
75931;DHT22;64609;47.052;15.462;2022-11-15T17:11:10;13.60;75.30
75931;DHT22;64609;47.052;15.462;2022-11-15T17:13:37;13.60;75.30
75931;DHT22;64609;47.052;15.462;2022-11-15T17:16:14;13.60;75.10
75931;DHT22;64609;47.052;15.462;2022-11-15T17:18:41;13.60;75.10
75931;DHT22;64609;47.052;15.462;2022-11-15T17:21:13;13.60;75.20
75931;DHT22;64609;47.052;15.462;2022-11-15T17:23:38;13.60;75.00
75931;DHT22;64609;47.052;15.462;2022-11-15T17:26:04;13.60;75.00
75931;DHT22;64609;47.052;15.462;2022-11-15T17:28:34;13.50;75.70